Time;durP1;ratioP1;P1;durP2;ratioP2;P2;SDS_P1;SDS_P2;PMS_P1;PMS_P2;Temp;Humidity;BMP_temperature;BMP_pressure;BME280_temperature;BME280_humidity;BME280_pressure;Samples;Min_cycle;Max_cycle;Signal;HPM_P1;HPM_P2
2023/01/08 00:00:24;;;;;;;1.80;1.70;;;;;;;;;;5098678;28;20258;-64
2023/01/08 00:02:52;;;;;;;1.75;1.65;;;;;;;;;;5098831;28;20203;-63
2023/01/08 00:05:20;;;;;;;1.90;1.80;;;;;;;;;;5099064;28;20211;-63
2023/01/08 00:07:48;;;;;;;1.65;1.55;;;;;;;;;;5097988;28;20610;-63
2023/01/08 00:10:16;;;;;;;2.25;2.05;;;;;;;;;;5098373;28;20211;-63
2023/01/08 00:12:44;;;;;;;1.80;1.70;;;;;;;;;;5097965;28;20490;-63
2023/01/08 00:15:13;;;;;;;2.00;1.80;;;;;;;;;;5098417;28;20203;-63
2023/01/08 00:17:41;;;;;;;2.25;2.05;;;;;;;;;;5097959;28;20697;-63
2023/01/08 00:20:09;;;;;;;2.13;1.70;;;;;;;;;;5097880;28;20214;-63
2023/01/08 00:22:37;;;;;;;2.10;2.00;;;;;;;;;;5098011;28;20199;-62
2023/01/08 00:25:06;;;;;;;2.30;2.10;;;;;;;;;;5098015;28;20212;-62
2023/01/08 00:27:34;;;;;;;2.05;1.90;;;;;;;;;;5098101;28;20199;-62
2023/01/08 00:30:01;;;;;;;1.85;1.75;;;;;;;;;;5098952;28;20704;-62
2023/01/08 00:32:31;;;;;;;1.70;1.60;;;;;;;;;;5098144;28;20213;-62
2023/01/08 00:35:00;;;;;;;1.73;1.63;;;;;;;;;;5098215;28;20204;-62
2023/01/08 00:37:28;;;;;;;1.70;1.60;;;;;;;;;;5098033;28;20237;-62
2023/01/08 00:39:56;;;;;;;1.60;1.50;;;;;;;;;;5097966;28;20494;-63
2023/01/08 00:42:24;;;;;;;2.08;1.60;;;;;;;;;;5097917;28;20203;-63
2023/01/08 00:44:51;;;;;;;1.80;1.70;;;;;;;;;;5098055;28;20203;-63
2023/01/08 00:47:19;;;;;;;1.83;1.73;;;;;;;;;;5098195;28;20563;-63
2023/01/08 00:49:49;;;;;;;2.65;1.75;;;;;;;;;;5097052;28;20286;-64
2023/01/08 00:52:17;;;;;;;1.90;1.80;;;;;;;;;;5098128;28;20526;-63
2023/01/08 00:54:44;;;;;;;1.80;1.70;;;;;;;;;;5097002;28;20526;-63
2023/01/08 00:57:12;;;;;;;1.77;1.67;;;;;;;;;;5097892;28;20227;-63
2023/01/08 00:59:40;;;;;;;1.98;1.88;;;;;;;;;;5097950;28;20204;-63
2023/01/08 01:02:08;;;;;;;1.63;1.52;;;;;;;;;;5097485;28;20230;-63
2023/01/08 01:04:35;;;;;;;1.80;1.70;;;;;;;;;;5097334;28;20203;-63
2023/01/08 01:07:05;;;;;;;1.80;1.70;;;;;;;;;;5097418;28;20200;-63
2023/01/08 01:09:33;;;;;;;1.73;1.63;;;;;;;;;;5096858;28;20200;-63
2023/01/08 01:12:01;;;;;;;1.77;1.67;;;;;;;;;;5097267;28;20215;-63
2023/01/08 01:14:28;;;;;;;1.80;1.70;;;;;;;;;;5097435;28;20235;-63
2023/01/08 01:16:56;;;;;;;1.60;1.50;;;;;;;;;;5097018;28;20256;-63
2023/01/08 01:19:24;;;;;;;1.80;1.65;;;;;;;;;;5097048;28;20211;-62
2023/01/08 01:21:52;;;;;;;1.70;1.60;;;;;;;;;;5096652;28;20211;-62
2023/01/08 01:24:23;;;;;;;1.63;1.50;;;;;;;;;;5096905;28;20247;-62
2023/01/08 01:26:51;;;;;;;1.83;1.63;;;;;;;;;;5097109;28;20288;-62
2023/01/08 01:29:19;;;;;;;1.80;1.70;;;;;;;;;;5097118;28;20214;-62
2023/01/08 01:31:47;;;;;;;1.80;1.70;;;;;;;;;;5097475;28;20246;-62
2023/01/08 01:34:15;;;;;;;1.60;1.50;;;;;;;;;;5096407;28;20231;-62
2023/01/08 01:36:42;;;;;;;1.90;1.60;;;;;;;;;;5096500;28;20545;-63
2023/01/08 01:39:10;;;;;;;1.70;1.60;;;;;;;;;;5096417;28;20213;-63
2023/01/08 01:41:41;;;;;;;1.58;1.48;;;;;;;;;;5096942;28;20204;-63
2023/01/08 01:44:27;;;;;;;1.80;1.70;;;;;;;;;;5096221;28;20247;-63
2023/01/08 01:46:55;;;;;;;1.75;1.65;;;;;;;;;;5096017;28;20243;-63
2023/01/08 01:49:24;;;;;;;1.80;1.70;;;;;;;;;;5096329;28;20205;-63
2023/01/08 01:51:54;;;;;;;1.85;1.75;;;;;;;;;;5096558;28;20269;-62
2023/01/08 01:54:22;;;;;;;1.65;1.55;;;;;;;;;;5096580;28;20290;-62
2023/01/08 01:56:51;;;;;;;1.92;1.83;;;;;;;;;;5096508;28;20211;-62
2023/01/08 01:59:19;;;;;;;1.70;1.60;;;;;;;;;;5096244;28;20242;-62
2023/01/08 02:01:47;;;;;;;2.03;1.92;;;;;;;;;;5096568;28;20203;-64
2023/01/08 02:04:15;;;;;;;1.60;1.50;;;;;;;;;;5095669;28;20528;-63
2023/01/08 02:06:44;;;;;;;1.75;1.65;;;;;;;;;;5097408;28;20298;-63
2023/01/08 02:09:15;;;;;;;1.90;1.80;;;;;;;;;;5099513;28;20599;-63
2023/01/08 02:11:46;;;;;;;1.70;1.60;;;;;;;;;;5100048;28;20211;-63
2023/01/08 02:14:18;;;;;;;1.73;1.63;;;;;;;;;;5099534;28;20207;-63
2023/01/08 02:16:49;;;;;;;1.70;1.60;;;;;;;;;;5099859;28;20210;-63
2023/01/08 02:19:21;;;;;;;1.50;1.40;;;;;;;;;;5099268;28;20516;-63
2023/01/08 02:21:54;;;;;;;1.50;1.40;;;;;;;;;;5099494;28;20199;-63
2023/01/08 02:24:28;;;;;;;1.75;1.65;;;;;;;;;;5098960;28;20218;-63
2023/01/08 02:26:58;;;;;;;1.60;1.50;;;;;;;;;;5099088;28;20211;-63
2023/01/08 02:29:27;;;;;;;2.13;1.70;;;;;;;;;;5099109;28;20203;-63
2023/01/08 02:31:55;;;;;;;1.77;1.67;;;;;;;;;;5099699;28;20207;-63
2023/01/08 02:34:23;;;;;;;2.03;1.50;;;;;;;;;;5046984;28;1505824;-63
2023/01/08 02:36:52;;;;;;;1.85;1.75;;;;;;;;;;5100078;28;20576;-64
2023/01/08 02:39:31;;;;;;;1.52;1.42;;;;;;;;;;5100071;28;20298;-63
2023/01/08 02:42:12;;;;;;;1.60;1.50;;;;;;;;;;5100810;28;20264;-63
2023/01/08 02:44:47;;;;;;;1.73;1.63;;;;;;;;;;5100440;28;20210;-63
2023/01/08 02:47:18;;;;;;;1.85;1.75;;;;;;;;;;5100157;28;20305;-63
2023/01/08 02:49:48;;;;;;;1.90;1.80;;;;;;;;;;5100512;28;20211;-63
2023/01/08 02:52:17;;;;;;;1.60;1.50;;;;;;;;;;5100241;28;20254;-63
2023/01/08 02:54:45;;;;;;;1.65;1.55;;;;;;;;;;5100443;28;20207;-63
2023/01/08 02:57:16;;;;;;;1.70;1.60;;;;;;;;;;5099906;28;20208;-63
2023/01/08 02:59:46;;;;;;;1.73;1.63;;;;;;;;;;5100616;28;20655;-63
2023/01/08 03:02:14;;;;;;;1.85;1.75;;;;;;;;;;5100236;28;20257;-63
2023/01/08 03:04:47;;;;;;;1.70;1.60;;;;;;;;;;5100132;28;20203;-63
2023/01/08 03:07:14;;;;;;;1.65;1.55;;;;;;;;;;5100209;28;20204;-63
2023/01/08 03:09:42;;;;;;;1.70;1.60;;;;;;;;;;5100002;28;20203;-63
2023/01/08 03:12:11;;;;;;;1.70;1.60;;;;;;;;;;5099935;28;20208;-64
2023/01/08 03:14:42;;;;;;;1.90;1.80;;;;;;;;;;5099770;28;20254;-63
2023/01/08 03:17:14;;;;;;;1.70;1.60;;;;;;;;;;5099109;28;20523;-64
2023/01/08 03:19:43;;;;;;;1.73;1.63;;;;;;;;;;5099542;28;20207;-63
2023/01/08 03:22:13;;;;;;;2.20;1.70;;;;;;;;;;5099740;28;20215;-63
2023/01/08 03:24:41;;;;;;;1.75;1.65;;;;;;;;;;5099268;28;20230;-63
2023/01/08 03:27:11;;;;;;;1.60;1.50;;;;;;;;;;5099664;28;20203;-63
2023/01/08 03:29:41;;;;;;;1.73;1.63;;;;;;;;;;5099945;28;20204;-63
2023/01/08 03:32:11;;;;;;;1.63;1.52;;;;;;;;;;5099737;28;20203;-63
2023/01/08 03:34:41;;;;;;;1.50;1.40;;;;;;;;;;5079101;28;20205;-63
2023/01/08 03:37:10;;;;;;;1.58;1.48;;;;;;;;;;5079058;28;20555;-63
2023/01/08 03:39:41;;;;;;;1.65;1.55;;;;;;;;;;5079524;28;20212;-63
2023/01/08 03:42:11;;;;;;;1.70;1.60;;;;;;;;;;5079118;28;20227;-63
2023/01/08 03:44:40;;;;;;;1.70;1.60;;;;;;;;;;5078162;28;20204;-63
2023/01/08 03:47:09;;;;;;;1.73;1.63;;;;;;;;;;5078747;28;20524;-63
2023/01/08 03:49:38;;;;;;;1.75;1.65;;;;;;;;;;5077919;28;20262;-63
2023/01/08 03:52:06;;;;;;;1.77;1.67;;;;;;;;;;5079078;28;20266;-63
2023/01/08 03:54:36;;;;;;;1.63;1.52;;;;;;;;;;5078665;28;20210;-64
2023/01/08 03:57:04;;;;;;;1.60;1.50;;;;;;;;;;5078346;28;20211;-63
2023/01/08 03:59:31;;;;;;;1.88;1.77;;;;;;;;;;5078530;28;20228;-63
2023/01/08 04:02:01;;;;;;;1.60;1.50;;;;;;;;;;5077949;28;20212;-63
2023/01/08 04:04:29;;;;;;;1.83;1.73;;;;;;;;;;5078313;28;20204;-64
2023/01/08 04:06:57;;;;;;;1.90;1.80;;;;;;;;;;5077812;28;20204;-63
2023/01/08 04:09:24;;;;;;;1.70;1.60;;;;;;;;;;5078550;28;20627;-63
2023/01/08 04:11:52;;;;;;;1.73;1.63;;;;;;;;;;5078460;28;20585;-64
2023/01/08 04:14:20;;;;;;;1.60;1.50;;;;;;;;;;5078720;28;20204;-63
2023/01/08 04:16:48;;;;;;;1.60;1.50;;;;;;;;;;5077570;28;20209;-63
2023/01/08 04:19:17;;;;;;;1.80;1.70;;;;;;;;;;5077677;28;20228;-63
2023/01/08 04:21:45;;;;;;;1.70;1.60;;;;;;;;;;5077860;28;20212;-63
2023/01/08 04:24:13;;;;;;;1.75;1.65;;;;;;;;;;5077422;28;20208;-64
2023/01/08 04:26:41;;;;;;;1.50;1.40;;;;;;;;;;5077407;28;20467;-63
2023/01/08 04:29:09;;;;;;;1.80;1.70;;;;;;;;;;5076756;28;20200;-63
2023/01/08 04:31:37;;;;;;;1.67;1.58;;;;;;;;;;5076513;28;20205;-63
2023/01/08 04:34:05;;;;;;;1.70;1.60;;;;;;;;;;5093818;28;20247;-63
2023/01/08 04:36:34;;;;;;;1.90;1.80;;;;;;;;;;5098313;28;20231;-63
2023/01/08 04:39:02;;;;;;;1.80;1.70;;;;;;;;;;5098054;28;20228;-63
2023/01/08 04:41:30;;;;;;;1.70;1.60;;;;;;;;;;5098335;28;20218;-63
2023/01/08 04:43:58;;;;;;;1.90;1.80;;;;;;;;;;5098480;28;20214;-63
2023/01/08 04:46:25;;;;;;;1.73;1.63;;;;;;;;;;5097322;28;20231;-63
2023/01/08 04:48:53;;;;;;;1.90;1.80;;;;;;;;;;5097652;28;20214;-63
2023/01/08 04:51:22;;;;;;;1.70;1.60;;;;;;;;;;5097858;28;20211;-63
2023/01/08 04:53:51;;;;;;;1.90;1.80;;;;;;;;;;5096737;28;20310;-63
2023/01/08 04:56:18;;;;;;;1.52;1.42;;;;;;;;;;5098160;28;20484;-63
2023/01/08 04:58:47;;;;;;;1.80;1.70;;;;;;;;;;5097377;28;20313;-63
2023/01/08 05:01:15;;;;;;;1.80;1.70;;;;;;;;;;5098054;28;20254;-63
2023/01/08 05:03:42;;;;;;;1.67;1.58;;;;;;;;;;5096677;28;20264;-63
2023/01/08 05:06:10;;;;;;;1.88;1.77;;;;;;;;;;5097458;28;20260;-63
2023/01/08 05:08:37;;;;;;;1.88;1.77;;;;;;;;;;5097025;28;20231;-63
2023/01/08 05:11:06;;;;;;;1.60;1.50;;;;;;;;;;5097555;28;20234;-62
2023/01/08 05:13:34;;;;;;;1.98;1.88;;;;;;;;;;5095780;28;20257;-62
2023/01/08 05:16:02;;;;;;;1.67;1.58;;;;;;;;;;5097486;28;20235;-62
2023/01/08 05:18:29;;;;;;;1.90;1.80;;;;;;;;;;5097541;28;20234;-62
2023/01/08 05:21:00;;;;;;;1.85;1.75;;;;;;;;;;5097041;28;20237;-63
2023/01/08 05:23:28;;;;;;;1.88;1.77;;;;;;;;;;5097635;28;20218;-63
2023/01/08 05:25:57;;;;;;;1.77;1.67;;;;;;;;;;5097140;28;20606;-63
2023/01/08 05:28:27;;;;;;;1.70;1.60;;;;;;;;;;5096665;28;20223;-63
2023/01/08 05:30:54;;;;;;;1.88;1.77;;;;;;;;;;5095623;28;20567;-63
2023/01/08 05:33:22;;;;;;;1.92;1.83;;;;;;;;;;5096397;28;20623;-63
2023/01/08 05:35:50;;;;;;;1.95;1.85;;;;;;;;;;5096799;28;20211;-63
2023/01/08 05:38:17;;;;;;;1.80;1.70;;;;;;;;;;5097111;28;20258;-63
2023/01/08 05:40:45;;;;;;;2.00;1.90;;;;;;;;;;5097057;28;20211;-63
2023/01/08 05:43:12;;;;;;;1.83;1.73;;;;;;;;;;5096579;28;20280;-63
2023/01/08 05:45:41;;;;;;;1.70;1.60;;;;;;;;;;5096745;28;20525;-63
2023/01/08 05:48:09;;;;;;;1.98;1.88;;;;;;;;;;5097302;28;20250;-63
2023/01/08 05:50:36;;;;;;;1.70;1.60;;;;;;;;;;5097402;28;20598;-63
2023/01/08 05:53:07;;;;;;;1.95;1.85;;;;;;;;;;5097403;28;20732;-63
2023/01/08 05:55:35;;;;;;;2.00;1.90;;;;;;;;;;5096599;28;20416;-63
2023/01/08 05:58:02;;;;;;;1.90;1.80;;;;;;;;;;5097466;28;20269;-63
2023/01/08 06:00:30;;;;;;;1.92;1.83;;;;;;;;;;5097250;28;20268;-63
2023/01/08 06:02:59;;;;;;;1.73;1.63;;;;;;;;;;5096855;28;20215;-63
2023/01/08 06:05:27;;;;;;;1.77;1.67;;;;;;;;;;5097385;28;20521;-63
2023/01/08 06:07:55;;;;;;;1.92;1.83;;;;;;;;;;5096409;28;20207;-63
2023/01/08 06:10:22;;;;;;;1.73;1.63;;;;;;;;;;5095764;28;20264;-63
2023/01/08 06:12:50;;;;;;;1.90;1.80;;;;;;;;;;5096093;28;20269;-63
2023/01/08 06:15:17;;;;;;;1.90;1.80;;;;;;;;;;5096257;28;20211;-63
2023/01/08 06:17:45;;;;;;;1.85;1.75;;;;;;;;;;5096327;28;20249;-63
2023/01/08 06:20:14;;;;;;;1.85;1.75;;;;;;;;;;5095999;28;20655;-63
2023/01/08 06:22:41;;;;;;;1.80;1.70;;;;;;;;;;5095895;28;20268;-63
2023/01/08 06:25:09;;;;;;;1.83;1.73;;;;;;;;;;5095504;28;20664;-63
2023/01/08 06:27:37;;;;;;;2.00;1.90;;;;;;;;;;5096148;28;20538;-63
2023/01/08 06:30:05;;;;;;;1.90;1.80;;;;;;;;;;5095702;28;20246;-63
2023/01/08 06:32:32;;;;;;;1.90;1.80;;;;;;;;;;5096112;28;20292;-63
2023/01/08 06:35:00;;;;;;;1.85;1.75;;;;;;;;;;5094932;28;20553;-63
2023/01/08 06:37:29;;;;;;;1.80;1.70;;;;;;;;;;5096305;28;20280;-63
2023/01/08 06:39:56;;;;;;;1.70;1.60;;;;;;;;;;5095616;28;20262;-63
2023/01/08 06:42:24;;;;;;;1.90;1.80;;;;;;;;;;5096348;28;20246;-63
2023/01/08 06:44:51;;;;;;;1.85;1.75;;;;;;;;;;5096123;28;20644;-63
2023/01/08 06:47:19;;;;;;;1.80;1.70;;;;;;;;;;5095971;28;20243;-62
2023/01/08 06:49:47;;;;;;;1.73;1.63;;;;;;;;;;5096255;28;20208;-62
2023/01/08 06:52:14;;;;;;;1.60;1.50;;;;;;;;;;5096539;28;20203;-62
2023/01/08 06:54:43;;;;;;;1.73;1.63;;;;;;;;;;5098827;28;20557;-62
2023/01/08 06:57:10;;;;;;;1.85;1.75;;;;;;;;;;5099210;28;20269;-62
2023/01/08 06:59:38;;;;;;;1.60;1.50;;;;;;;;;;5099884;28;20288;-62
2023/01/08 07:02:06;;;;;;;1.70;1.60;;;;;;;;;;5100400;28;20599;-62
2023/01/08 07:04:33;;;;;;;1.88;1.70;;;;;;;;;;5100117;28;20242;-62
2023/01/08 07:07:01;;;;;;;1.65;1.55;;;;;;;;;;5099915;28;20580;-62
2023/01/08 07:09:28;;;;;;;1.67;1.58;;;;;;;;;;5099501;28;20719;-62
2023/01/08 07:11:57;;;;;;;1.60;1.50;;;;;;;;;;5100064;28;20539;-62
2023/01/08 07:14:24;;;;;;;1.70;1.60;;;;;;;;;;5100021;28;20567;-62
2023/01/08 07:16:52;;;;;;;1.90;1.80;;;;;;;;;;5099390;28;20269;-62
2023/01/08 07:19:20;;;;;;;1.63;1.52;;;;;;;;;;5098778;28;20691;-63
2023/01/08 07:21:47;;;;;;;1.60;1.50;;;;;;;;;;5099891;28;20204;-64
2023/01/08 07:24:14;;;;;;;1.80;1.70;;;;;;;;;;5099549;28;20401;-63
2023/01/08 07:26:42;;;;;;;1.73;1.63;;;;;;;;;;5099364;28;20239;-63
2023/01/08 07:29:11;;;;;;;1.58;1.48;;;;;;;;;;5100069;28;20262;-63
2023/01/08 07:31:39;;;;;;;1.70;1.60;;;;;;;;;;5099272;28;20204;-63
2023/01/08 07:34:06;;;;;;;1.70;1.60;;;;;;;;;;5099445;28;20538;-63
2023/01/08 07:36:34;;;;;;;1.58;1.48;;;;;;;;;;5098863;28;20204;-63
2023/01/08 07:39:01;;;;;;;1.60;1.50;;;;;;;;;;5099105;28;20227;-64
2023/01/08 07:41:29;;;;;;;1.48;1.38;;;;;;;;;;5099508;28;20229;-63
2023/01/08 07:43:56;;;;;;;1.70;1.60;;;;;;;;;;5099231;28;20207;-64
2023/01/08 07:46:25;;;;;;;1.50;1.40;;;;;;;;;;5099491;28;20591;-63
2023/01/08 07:48:53;;;;;;;1.50;1.40;;;;;;;;;;5098916;28;20592;-63
2023/01/08 07:51:20;;;;;;;1.60;1.50;;;;;;;;;;5099203;28;20214;-63
2023/01/08 07:53:50;;;;;;;1.80;1.70;;;;;;;;;;5099459;28;20257;-63
2023/01/08 07:56:17;;;;;;;1.63;1.52;;;;;;;;;;5099382;28;20207;-63
2023/01/08 07:58:45;;;;;;;1.90;1.80;;;;;;;;;;5098686;28;20204;-63
2023/01/08 08:01:13;;;;;;;1.83;1.73;;;;;;;;;;5099063;28;20215;-63
2023/01/08 08:03:42;;;;;;;1.70;1.60;;;;;;;;;;5097408;28;20235;-63
2023/01/08 08:06:10;;;;;;;1.73;1.63;;;;;;;;;;5094076;28;20445;-63
2023/01/08 08:08:37;;;;;;;1.65;1.55;;;;;;;;;;5080463;28;20215;-63
2023/01/08 08:11:05;;;;;;;1.90;1.80;;;;;;;;;;5084511;28;20269;-63
2023/01/08 08:13:33;;;;;;;1.90;1.70;;;;;;;;;;5098516;28;20250;-63
2023/01/08 08:16:03;;;;;;;3.50;2.25;;;;;;;;;;5098578;28;20807;-63
2023/01/08 08:18:30;;;;;;;2.90;1.50;;;;;;;;;;5078976;28;20687;-63
2023/01/08 08:20:59;;;;;;;1.80;1.70;;;;;;;;;;5077695;28;20235;-63
2023/01/08 08:23:27;;;;;;;2.13;1.92;;;;;;;;;;5077489;28;20278;-63
2023/01/08 08:25:54;;;;;;;2.60;2.40;;;;;;;;;;5077566;28;20213;-63
2023/01/08 08:28:22;;;;;;;2.97;2.67;;;;;;;;;;5073298;28;20240;-63
2023/01/08 08:30:51;;;;;;;3.13;2.92;;;;;;;;;;5073432;28;20200;-63
2023/01/08 08:33:19;;;;;;;3.55;3.22;;;;;;;;;;5076964;28;20522;-63
2023/01/08 08:35:49;;;;;;;3.67;3.38;;;;;;;;;;5077623;28;20624;-63
2023/01/08 08:38:19;;;;;;;4.05;3.25;;;;;;;;;;5077272;28;20368;-63
2023/01/08 08:40:46;;;;;;;3.75;3.45;;;;;;;;;;5076835;28;20271;-63
2023/01/08 08:43:14;;;;;;;3.88;3.50;;;;;;;;;;5077814;28;20211;-63
2023/01/08 08:45:41;;;;;;;3.50;3.20;;;;;;;;;;5077532;28;20205;-63
2023/01/08 08:48:10;;;;;;;3.72;3.42;;;;;;;;;;5077809;28;20285;-63
2023/01/08 08:50:37;;;;;;;4.68;3.58;;;;;;;;;;5076951;28;20310;-63
2023/01/08 08:53:06;;;;;;;4.15;3.42;;;;;;;;;;5077066;28;20254;-63
2023/01/08 08:55:35;;;;;;;4.07;3.67;;;;;;;;;;5076795;28;20247;-63
2023/01/08 08:58:04;;;;;;;3.40;3.13;;;;;;;;;;5077224;28;20670;-63
2023/01/08 09:00:31;;;;;;;3.70;3.40;;;;;;;;;;5076515;28;20592;-63
2023/01/08 09:02:59;;;;;;;4.38;3.72;;;;;;;;;;5077193;28;20204;-63
2023/01/08 09:05:26;;;;;;;3.70;3.40;;;;;;;;;;5075856;28;20282;-63
2023/01/08 09:07:54;;;;;;;3.88;3.47;;;;;;;;;;5075086;28;20243;-63
2023/01/08 09:10:21;;;;;;;4.38;3.97;;;;;;;;;;5075200;28;20196;-63
2023/01/08 09:12:50;;;;;;;4.47;4.07;;;;;;;;;;5076514;28;20212;-63
2023/01/08 09:15:18;;;;;;;4.40;4.00;;;;;;;;;;5075900;28;20205;-63
2023/01/08 09:17:46;;;;;;;4.72;4.30;;;;;;;;;;5077343;28;20209;-63
2023/01/08 09:20:13;;;;;;;4.40;4.00;;;;;;;;;;5077479;28;20650;-63
2023/01/08 09:22:41;;;;;;;4.45;4.05;;;;;;;;;;5077228;28;20200;-63
2023/01/08 09:25:08;;;;;;;4.63;4.22;;;;;;;;;;5076936;28;20255;-63
2023/01/08 09:27:39;;;;;;;5.05;4.45;;;;;;;;;;5076903;28;20248;-63
2023/01/08 09:30:09;;;;;;;5.03;4.38;;;;;;;;;;5077467;28;20196;-63
2023/01/08 09:32:37;;;;;;;4.30;3.90;;;;;;;;;;5076560;28;20237;-64
2023/01/08 09:35:05;;;;;;;5.07;4.57;;;;;;;;;;5076082;28;20212;-63
2023/01/08 09:37:32;;;;;;;5.05;4.55;;;;;;;;;;5080952;28;20775;-63
2023/01/08 09:40:00;;;;;;;4.85;4.43;;;;;;;;;;5076495;28;20250;-63
2023/01/08 09:42:29;;;;;;;5.05;4.55;;;;;;;;;;5076373;28;20414;-63
2023/01/08 09:44:58;;;;;;;4.95;4.45;;;;;;;;;;5075993;28;20257;-63
2023/01/08 09:47:28;;;;;;;5.25;4.85;;;;;;;;;;5075890;28;20541;-63
2023/01/08 09:49:58;;;;;;;5.35;4.85;;;;;;;;;;5075397;28;20222;-63
2023/01/08 09:52:25;;;;;;;6.13;5.25;;;;;;;;;;5075693;28;20212;-63
2023/01/08 09:54:53;;;;;;;5.55;4.97;;;;;;;;;;5075156;28;20215;-63
2023/01/08 09:57:21;;;;;;;5.47;4.97;;;;;;;;;;5075420;28;20204;-63
2023/01/08 09:59:49;;;;;;;5.28;4.78;;;;;;;;;;5075069;28;20286;-63
2023/01/08 10:02:17;;;;;;;5.75;5.18;;;;;;;;;;5075485;28;20642;-63
2023/01/08 10:04:47;;;;;;;6.00;4.97;;;;;;;;;;5075428;28;20269;-63
2023/01/08 10:07:20;;;;;;;5.00;4.53;;;;;;;;;;5075721;28;20316;-62
2023/01/08 10:09:48;;;;;;;5.60;5.10;;;;;;;;;;5075869;28;20211;-62
2023/01/08 10:12:18;;;;;;;5.57;5.07;;;;;;;;;;5074986;28;20291;-62
2023/01/08 10:14:48;;;;;;;6.07;4.93;;;;;;;;;;5075283;28;20258;-62
2023/01/08 10:17:22;;;;;;;6.43;5.72;;;;;;;;;;5074999;28;20226;-62
2023/01/08 10:19:51;;;;;;;5.75;5.07;;;;;;;;;;5074902;28;20224;-62
2023/01/08 10:22:20;;;;;;;5.68;5.20;;;;;;;;;;5074931;28;20208;-62
2023/01/08 10:24:48;;;;;;;5.53;4.93;;;;;;;;;;5074142;28;20211;-62
2023/01/08 10:27:16;;;;;;;5.25;4.75;;;;;;;;;;5074679;28;20243;-64
2023/01/08 10:29:44;;;;;;;5.47;4.80;;;;;;;;;;5078858;28;20243;-63
2023/01/08 10:32:18;;;;;;;6.20;4.85;;;;;;;;;;5078945;28;20204;-63
2023/01/08 10:34:46;;;;;;;4.97;4.50;;;;;;;;;;5079086;28;20246;-63
2023/01/08 10:37:18;;;;;;;5.10;4.57;;;;;;;;;;5078322;28;20265;-64
2023/01/08 10:39:47;;;;;;;6.13;5.00;;;;;;;;;;5078942;28;20262;-63
2023/01/08 10:42:16;;;;;;;5.40;4.55;;;;;;;;;;5078996;28;20196;-63
2023/01/08 10:44:52;;;;;;;5.43;4.38;;;;;;;;;;5079179;28;20212;-63
2023/01/08 10:47:20;;;;;;;4.57;4.18;;;;;;;;;;5079659;28;20559;-63
2023/01/08 10:49:47;;;;;;;5.65;4.75;;;;;;;;;;5079710;28;20523;-63
2023/01/08 10:52:27;;;;;;;5.05;4.60;;;;;;;;;;5078649;28;20532;-63
2023/01/08 10:54:55;;;;;;;4.78;4.28;;;;;;;;;;5078498;28;20239;-63
2023/01/08 10:57:23;;;;;;;4.93;4.45;;;;;;;;;;5078448;28;20588;-63
2023/01/08 10:59:51;;;;;;;4.40;4.00;;;;;;;;;;5077984;28;20293;-64
2023/01/08 11:02:22;;;;;;;4.53;3.90;;;;;;;;;;5078505;28;20215;-63
2023/01/08 11:04:51;;;;;;;4.78;4.38;;;;;;;;;;5077775;28;20334;-63
2023/01/08 11:07:20;;;;;;;4.53;3.80;;;;;;;;;;5078221;28;20219;-63
2023/01/08 11:09:50;;;;;;;4.90;4.40;;;;;;;;;;5078193;28;20236;-63
2023/01/08 11:12:29;;;;;;;4.15;3.80;;;;;;;;;;5077958;28;20618;-63
2023/01/08 11:14:57;;;;;;;5.10;4.00;;;;;;;;;;5077394;28;20204;-63
2023/01/08 11:17:25;;;;;;;4.40;3.97;;;;;;;;;;5078145;28;20271;-63
2023/01/08 11:19:52;;;;;;;4.55;4.15;;;;;;;;;;5077982;28;20592;-63
2023/01/08 11:22:21;;;;;;;4.35;3.95;;;;;;;;;;5077601;28;20265;-63
2023/01/08 11:24:51;;;;;;;4.00;3.60;;;;;;;;;;5077601;28;20244;-63
2023/01/08 11:27:23;;;;;;;4.78;3.85;;;;;;;;;;5077287;28;20204;-63
2023/01/08 11:29:54;;;;;;;4.20;3.80;;;;;;;;;;5077391;28;20269;-63
2023/01/08 11:32:37;;;;;;;4.82;4.43;;;;;;;;;;5078132;28;20270;-63
2023/01/08 11:35:09;;;;;;;3.88;3.50;;;;;;;;;;5077046;28;20258;-63
2023/01/08 11:37:39;;;;;;;4.38;3.92;;;;;;;;;;5077849;28;20240;-63
2023/01/08 11:40:14;;;;;;;4.00;3.70;;;;;;;;;;5077745;28;20224;-63
2023/01/08 11:42:52;;;;;;;3.97;3.67;;;;;;;;;;5077172;28;20289;-63
2023/01/08 11:45:25;;;;;;;3.70;3.40;;;;;;;;;;5077459;28;20265;-63
2023/01/08 11:48:05;;;;;;;3.97;3.63;;;;;;;;;;5076625;28;20264;-63
2023/01/08 11:50:36;;;;;;;3.80;3.50;;;;;;;;;;5076087;28;20265;-63
2023/01/08 11:53:10;;;;;;;3.40;3.10;;;;;;;;;;5076308;28;20269;-63
2023/01/08 11:55:46;;;;;;;3.20;2.90;;;;;;;;;;5076852;28;20266;-63
2023/01/08 11:58:22;;;;;;;3.45;3.15;;;;;;;;;;5077250;28;20204;-63
2023/01/08 12:01:00;;;;;;;3.55;3.25;;;;;;;;;;5077418;28;20263;-63
2023/01/08 12:03:31;;;;;;;4.28;3.30;;;;;;;;;;5076755;28;20568;-63
2023/01/08 12:06:05;;;;;;;3.38;3.08;;;;;;;;;;5076557;28;20212;-63
2023/01/08 12:08:36;;;;;;;3.05;2.85;;;;;;;;;;5077668;28;20246;-64
2023/01/08 12:11:10;;;;;;;3.15;2.85;;;;;;;;;;5076877;28;20573;-64
2023/01/08 12:13:43;;;;;;;3.35;3.05;;;;;;;;;;5077183;28;20212;-62
2023/01/08 12:16:18;;;;;;;3.25;2.97;;;;;;;;;;5077526;28;20255;-62
2023/01/08 12:18:56;;;;;;;3.10;2.80;;;;;;;;;;5077252;28;20227;-62
2023/01/08 12:21:27;;;;;;;3.13;2.83;;;;;;;;;;5076944;28;20343;-62
2023/01/08 12:24:01;;;;;;;3.10;2.80;;;;;;;;;;5075491;28;20549;-62
2023/01/08 12:26:35;;;;;;;3.10;2.90;;;;;;;;;;5075091;28;20614;-62
2023/01/08 12:29:09;;;;;;;2.90;2.70;;;;;;;;;;5076330;28;20204;-62
2023/01/08 12:31:54;;;;;;;2.80;2.60;;;;;;;;;;5075398;28;20200;-62
2023/01/08 12:34:25;;;;;;;2.90;2.70;;;;;;;;;;5076187;28;20236;-62
2023/01/08 12:36:54;;;;;;;2.92;2.70;;;;;;;;;;5076525;28;20314;-62
2023/01/08 12:39:23;;;;;;;3.13;2.83;;;;;;;;;;5076908;28;20246;-62
2023/01/08 12:41:53;;;;;;;3.05;2.75;;;;;;;;;;5076601;28;20236;-62
2023/01/08 12:44:24;;;;;;;2.60;2.40;;;;;;;;;;5076239;28;20204;-62
2023/01/08 12:46:54;;;;;;;3.00;2.80;;;;;;;;;;5076220;28;20243;-62
2023/01/08 12:49:25;;;;;;;2.80;2.60;;;;;;;;;;5076065;28;20204;-63
2023/01/08 12:51:56;;;;;;;2.95;2.50;;;;;;;;;;5076168;28;20208;-64
2023/01/08 12:54:27;;;;;;;2.70;2.30;;;;;;;;;;5076799;28;20266;-63
2023/01/08 12:57:01;;;;;;;2.20;2.00;;;;;;;;;;5073918;28;20818;-63
2023/01/08 12:59:33;;;;;;;2.60;2.40;;;;;;;;;;5075080;28;20203;-63
2023/01/08 13:02:03;;;;;;;2.50;2.30;;;;;;;;;;5075171;28;20271;-64
2023/01/08 13:04:39;;;;;;;2.28;2.08;;;;;;;;;;5075085;28;20203;-63
2023/01/08 13:07:07;;;;;;;2.20;2.10;;;;;;;;;;5074483;28;20340;-63
2023/01/08 13:09:34;;;;;;;2.17;1.98;;;;;;;;;;5074477;28;20204;-63
2023/01/08 13:12:06;;;;;;;2.55;2.35;;;;;;;;;;5074797;28;20200;-63
2023/01/08 13:14:41;;;;;;;2.30;2.00;;;;;;;;;;5073659;28;20269;-63
2023/01/08 13:17:16;;;;;;;2.17;2.00;;;;;;;;;;5075242;28;20247;-63
2023/01/08 13:19:45;;;;;;;2.17;1.98;;;;;;;;;;5074954;28;20272;-63
2023/01/08 13:22:22;;;;;;;2.03;1.90;;;;;;;;;;5075589;28;20286;-63
2023/01/08 13:24:50;;;;;;;1.85;1.75;;;;;;;;;;5075187;28;20285;-63
2023/01/08 13:27:30;;;;;;;1.90;1.80;;;;;;;;;;5075220;28;20212;-63
2023/01/08 13:29:58;;;;;;;2.05;1.80;;;;;;;;;;5075028;28;20208;-63
2023/01/08 13:32:39;;;;;;;1.80;1.70;;;;;;;;;;5074668;28;20653;-63
2023/01/08 13:35:30;;;;;;;1.73;1.63;;;;;;;;;;5074115;28;20581;-63
2023/01/08 13:38:14;;;;;;;2.03;1.92;;;;;;;;;;5051200;28;20211;-64
2023/01/08 13:40:52;;;;;;;1.98;1.83;;;;;;;;;;5075512;28;20533;-63
2023/01/08 13:43:22;;;;;;;1.85;1.75;;;;;;;;;;5074960;28;20594;-63
2023/01/08 13:45:57;;;;;;;1.75;1.65;;;;;;;;;;5074504;28;20231;-63
2023/01/08 13:48:26;;;;;;;2.22;2.13;;;;;;;;;;5075605;28;20208;-63
2023/01/08 13:50:54;;;;;;;1.60;1.50;;;;;;;;;;5075041;28;20247;-64
2023/01/08 13:53:23;;;;;;;1.75;1.65;;;;;;;;;;5072930;28;20620;-64
2023/01/08 13:55:55;;;;;;;1.80;1.70;;;;;;;;;;5073923;28;20226;-64
2023/01/08 13:58:26;;;;;;;1.60;1.50;;;;;;;;;;5075857;28;20204;-63
2023/01/08 14:00:54;;;;;;;2.72;1.80;;;;;;;;;;5073690;28;20235;-63
2023/01/08 14:03:23;;;;;;;1.58;1.48;;;;;;;;;;5079136;28;20472;-63
2023/01/08 14:05:53;;;;;;;2.13;1.60;;;;;;;;;;5079306;28;20243;-63
2023/01/08 14:08:24;;;;;;;1.60;1.50;;;;;;;;;;5078912;28;20683;-63
2023/01/08 14:10:51;;;;;;;1.70;1.60;;;;;;;;;;5079277;28;20281;-63
2023/01/08 14:13:21;;;;;;;1.55;1.45;;;;;;;;;;5078683;28;20251;-62
2023/01/08 14:15:50;;;;;;;1.63;1.52;;;;;;;;;;5078279;28;20200;-62
2023/01/08 14:18:18;;;;;;;1.55;1.45;;;;;;;;;;5078202;28;20211;-62
2023/01/08 14:20:49;;;;;;;1.55;1.45;;;;;;;;;;5078162;28;20211;-62
2023/01/08 14:23:20;;;;;;;1.63;1.40;;;;;;;;;;5077486;28;20212;-62
2023/01/08 14:25:48;;;;;;;4.85;2.08;;;;;;;;;;5078355;28;20204;-62
2023/01/08 14:28:17;;;;;;;4.72;1.90;;;;;;;;;;5077596;28;20204;-62
2023/01/08 14:30:49;;;;;;;3.50;2.10;;;;;;;;;;5078000;28;20584;-62
2023/01/08 14:33:17;;;;;;;2.40;1.90;;;;;;;;;;5077466;28;20300;-62
2023/01/08 14:35:45;;;;;;;3.65;1.98;;;;;;;;;;5078041;28;20493;-62
2023/01/08 14:38:15;;;;;;;2.33;1.70;;;;;;;;;;5078159;28;20248;-62
2023/01/08 14:40:43;;;;;;;2.95;1.83;;;;;;;;;;5077565;28;20204;-62
2023/01/08 14:43:13;;;;;;;2.38;2.00;;;;;;;;;;5078461;28;20216;-62
2023/01/08 14:45:45;;;;;;;2.22;1.67;;;;;;;;;;5077094;28;20592;-62
2023/01/08 14:48:17;;;;;;;3.92;1.85;;;;;;;;;;5077866;28;20239;-62
2023/01/08 14:50:46;;;;;;;2.58;1.50;;;;;;;;;;5077675;28;20527;-62
2023/01/08 14:53:18;;;;;;;4.20;1.88;;;;;;;;;;5078206;28;20208;-62
2023/01/08 14:55:49;;;;;;;1.80;1.70;;;;;;;;;;5077507;28;20228;-62